Currently 47°F in Beaumont, California, USA
47°F
47°F / 40°F
2 mph S
0.00"
Monday, February 20, 2017 9:43 AM PST

Beaumont, California Weather Summary
Last 36 Hours

Temperature Winds Hourly Humidity Dewpoint
Time Report Norm Report Norm Max Gusts Precip. Rpt. Norm Rpt. Norm Pressure
1Mon 09:43 AM  46.6°F  58°F  2 mph S  7 mph  5 mph  0.00"  87%  43%  43°F  35°F  30.28"
2Mon 09:16 AM  46.9°F  57°F  2 mph SW  5 mph  6 mph  ----  88%  44%  43°F  35°F  30.27"
Mon 09:00 AM  46.0°F  57°F  2 mph S  5 mph  6 mph  0.00"  89%  44%  43°F  35°F  30.27"
Mon 08:00 AM  42.4°F  55°F  2 mph SW  3 mph  5 mph  0.00"  92%  45%  40°F  34°F  30.25"
Mon 07:00 AM  40.6°F  51°F  2 mph SW  3 mph  5 mph  0.00"  95%  48%  39°F  32°F  30.22"
Mon 06:00 AM  40.3°F  50°F  1 mph W  4 mph  5 mph  0.00"  97%  49%  39°F  31°F  30.20"
Mon 05:00 AM  40.1°F  50°F  2 mph NW  4 mph  5 mph  0.00"  97%  49%  39°F  31°F  30.19"
Mon 04:00 AM  39.9°F  50°F  3 mph W  4 mph  7 mph  0.00"  96%  50%  39°F  32°F  30.18"
3Mon 03:20 AM  39.7°F  51°F  1 mph W  4 mph  6 mph  ----  95%  50%  38°F  32°F  30.18"
Mon 03:00 AM  39.9°F  51°F  2 mph W  4 mph  7 mph  0.00"  95%  50%  39°F  32°F  30.17"
Mon 02:00 AM  40.1°F  51°F  3 mph W  4 mph  6 mph  0.00"  97%  51%  39°F  33°F  30.17"
Mon 01:00 AM  40.3°F  51°F  1 mph W  4 mph  3 mph  0.00"  98%  51%  40°F  33°F  30.16"
Mon 12:00 AM  40.5°F  52°F  calm  4 mph  5 mph  0.00"  98%  51%  40°F  33°F  30.17"
Sun 11:00 PM  40.5°F  52°F  1 mph W  4 mph  5 mph  0.00"  98%  52%  40°F  34°F  30.16"
Sun 10:00 PM  40.5°F  52°F  3 mph SW  4 mph  5 mph  0.00"  98%  51%  40°F  34°F  30.15"
Sun 09:00 PM  40.8°F  53°F  calm  4 mph  7 mph  0.00"  98%  50%  40°F  35°F  30.11"
Sun 08:00 PM  41.2°F  54°F  2 mph SW  4 mph  6 mph  0.00"  97%  49%  40°F  34°F  30.10"
Sun 07:00 PM  41.5°F  55°F  1 mph SW  4 mph  6 mph  0.00"  98%  46%  41°F  34°F  30.07"
Sun 06:00 PM  42.1°F  57°F  1 mph SW  4 mph  6 mph  0.01"  97%  43%  41°F  34°F  30.03"
Sun 05:00 PM  42.6°F  60°F  3 mph W  4 mph  7 mph  0.00"  97%  38%  42°F  34°F  30.02"
Sun 04:00 PM  43.2°F  62°F  1 mph SW  6 mph  10 mph  0.00"  96%  36%  42°F  34°F  29.99"
Sun 03:00 PM  44.4°F  64°F  2 mph SW  6 mph  9 mph  0.00"  95%  35%  43°F  35°F  29.98"
Sun 02:00 PM  45.3°F  64°F  2 mph SW  7 mph  9 mph  0.00"  94%  36%  44°F  35°F  29.97"
Sun 01:00 PM  44.8°F  63°F  2 mph W  6 mph  8 mph  0.00"  94%  36%  43°F  35°F  29.96"
Sun 12:00 PM  43.3°F  62°F  3 mph SW  7 mph  7 mph  0.00"  97%  38%  43°F  35°F  29.96"
Sun 11:00 AM  42.4°F  61°F  1 mph SW  6 mph  7 mph  0.00"  98%  40%  42°F  35°F  29.96"
Sun 10:00 AM  41.5°F  59°F  2 mph SW  7 mph  8 mph  0.00"  98%  42%  41°F  35°F  29.94"
Sun 09:00 AM  41.5°F  57°F  3 mph SW  5 mph  8 mph  0.00"  98%  44%  41°F  35°F  29.90"
Sun 08:00 AM  41.5°F  55°F  3 mph SW  3 mph  9 mph  0.00"  98%  45%  41°F  34°F  29.88"
Sun 07:00 AM  41.4°F  52°F  4 mph S  3 mph  8 mph  0.01"  97%  48%  41°F  32°F  29.85"
Sun 06:00 AM  41.5°F  51°F  2 mph SW  4 mph  8 mph  0.00"  97%  48%  41°F  31°F  29.82"
Sun 05:00 AM  42.3°F  51°F  3 mph SW  4 mph  6 mph  0.00"  96%  49%  41°F  32°F  29.80"
Sun 04:00 AM  42.3°F  51°F  2 mph SW  4 mph  8 mph  0.00"  97%  49%  41°F  32°F  29.78"
Sun 03:00 AM  42.1°F  51°F  3 mph SW  4 mph  9 mph  0.00"  97%  50%  41°F  32°F  29.76"
Sun 02:00 AM  42.3°F  51°F  3 mph W  4 mph  9 mph  0.00"  97%  50%  41°F  33°F  29.74"
Sun 01:00 AM  42.6°F  51°F  1 mph W  4 mph  12 mph  0.00"  97%  51%  42°F  33°F  29.74"
Sun 12:00 AM  42.6°F  52°F  4 mph W  4 mph  12 mph  0.06"  97%  51%  42°F  34°F  29.73"
Sat 11:00 PM  43.2°F  52°F  6 mph SW  4 mph  10 mph  0.10"  97%  52%  42°F  34°F  29.73"
Sat 10:00 PM  43.3°F  53°F  4 mph SW  4 mph  9 mph  0.22"  97%  51%  43°F  34°F  29.71"

  1. Current weather data. No green row appears if the current weather data is also the high or low for the current day.
  2. High temperature for the current day.
  3. Low temperature for the current day.

The Beaumont, California weather pages are a service of WeatherCurrents. Cherry Valley is located in northern Riverside County, California, a community of the northern part of Beaumont, along the Interstate 10 highway, in the San Gorgonio pass area, between the communities of Calimesa, Banning.
Copyright ©Mon Feb 20 09:45:17 PST 2017  WeatherCurrents. All rights reserved. - Submit questions and comments - Privacy Policy

This page automatically refreshes every 10 minutes.